sensor_id;sensor_type;location;lat;lon;timestamp;pressure;altitude;pressure_sealevel;temperature;humidity
25560;BME280;13450;49.374;8.584;2022-11-21T00:00:26;99666.25;;;5.55;100.00
25560;BME280;13450;49.374;8.584;2022-11-21T00:02:59;99647.53;;;5.48;100.00
25560;BME280;13450;49.374;8.584;2022-11-21T00:05:26;99654.81;;;5.46;100.00
25560;BME280;13450;49.374;8.584;2022-11-21T00:07:54;99644.38;;;5.45;100.00
25560;BME280;13450;49.374;8.584;2022-11-21T00:10:20;99649.03;;;5.43;100.00
25560;BME280;13450;49.374;8.584;2022-11-21T00:12:46;99658.81;;;5.42;100.00
25560;BME280;13450;49.374;8.584;2022-11-21T00:15:11;99655.34;;;5.42;100.00
25560;BME280;13450;49.374;8.584;2022-11-21T00:17:39;99670.59;;;5.40;100.00
25560;BME280;13450;49.374;8.584;2022-11-21T00:20:05;99661.63;;;5.41;100.00
25560;BME280;13450;49.374;8.584;2022-11-21T00:22:31;99666.94;;;5.41;100.00
25560;BME280;13450;49.374;8.584;2022-11-21T00:24:56;99654.69;;;5.40;100.00
25560;BME280;13450;49.374;8.584;2022-11-21T00:27:22;99659.97;;;5.40;100.00
25560;BME280;13450;49.374;8.584;2022-11-21T00:29:48;99658.34;;;5.39;100.00
25560;BME280;13450;49.374;8.584;2022-11-21T00:32:13;99660.47;;;5.43;100.00
25560;BME280;13450;49.374;8.584;2022-11-21T00:34:38;99662.31;;;5.43;100.00
25560;BME280;13450;49.374;8.584;2022-11-21T00:37:04;99653.97;;;5.46;100.00
25560;BME280;13450;49.374;8.584;2022-11-21T00:39:29;99659.50;;;5.44;100.00
25560;BME280;13450;49.374;8.584;2022-11-21T00:41:54;99666.94;;;5.41;100.00
25560;BME280;13450;49.374;8.584;2022-11-21T00:44:19;99661.63;;;5.41;100.00
25560;BME280;13450;49.374;8.584;2022-11-21T00:46:45;99653.03;;;5.39;100.00
25560;BME280;13450;49.374;8.584;2022-11-21T00:49:10;99652.19;;;5.38;100.00
25560;BME280;13450;49.374;8.584;2022-11-21T00:51:35;99653.34;;;5.35;100.00
25560;BME280;13450;49.374;8.584;2022-11-21T00:54:01;99664.34;;;5.32;100.00
25560;BME280;13450;49.374;8.584;2022-11-21T00:56:26;99662.66;;;5.31;100.00
25560;BME280;13450;49.374;8.584;2022-11-21T00:58:51;99659.53;;;5.28;100.00
25560;BME280;13450;49.374;8.584;2022-11-21T01:01:16;99661.69;;;5.24;100.00
25560;BME280;13450;49.374;8.584;2022-11-21T01:03:42;99645.94;;;5.22;100.00
25560;BME280;13450;49.374;8.584;2022-11-21T01:06:10;99658.38;;;5.22;100.00
25560;BME280;13450;49.374;8.584;2022-11-21T01:08:39;99647.75;;;5.22;100.00
25560;BME280;13450;49.374;8.584;2022-11-21T01:11:06;99642.44;;;5.22;100.00
25560;BME280;13450;49.374;8.584;2022-11-21T01:13:35;99634.84;;;5.19;100.00
25560;BME280;13450;49.374;8.584;2022-11-21T01:16:37;99637.31;;;5.20;100.00
25560;BME280;13450;49.374;8.584;2022-11-21T01:18:56;99652.41;;;5.20;100.00
25560;BME280;13450;49.374;8.584;2022-11-21T01:21:28;99651.09;;;5.16;100.00
25560;BME280;13450;49.374;8.584;2022-11-21T01:23:54;99652.75;;;5.17;100.00
25560;BME280;13450;49.374;8.584;2022-11-21T01:26:22;99642.81;;;5.19;100.00
25560;BME280;13450;49.374;8.584;2022-11-21T01:28:48;99642.44;;;5.22;100.00
25560;BME280;13450;49.374;8.584;2022-11-21T01:31:17;99649.41;;;5.23;100.00
25560;BME280;13450;49.374;8.584;2022-11-21T01:33:43;99648.25;;;5.26;100.00
25560;BME280;13450;49.374;8.584;2022-11-21T01:36:12;99635.47;;;5.29;100.00
25560;BME280;13450;49.374;8.584;2022-11-21T01:38:43;99622.84;;;5.31;100.00
25560;BME280;13450;49.374;8.584;2022-11-21T01:41:09;99624.53;;;5.32;100.00
25560;BME280;13450;49.374;8.584;2022-11-21T01:43:35;99623.38;;;5.35;100.00
25560;BME280;13450;49.374;8.584;2022-11-21T01:49:01;99618.53;;;5.39;100.00
25560;BME280;13450;49.374;8.584;2022-11-21T01:51:41;99615.88;;;5.39;100.00
25560;BME280;13450;49.374;8.584;2022-11-21T01:54:24;99610.56;;;5.39;100.00
25560;BME280;13450;49.374;8.584;2022-11-21T01:57:09;99608.56;;;5.41;100.00
25560;BME280;13450;49.374;8.584;2022-11-21T01:59:40;99618.84;;;5.44;100.00
25560;BME280;13450;49.374;8.584;2022-11-21T02:02:09;99615.00;;;5.46;100.00
25560;BME280;13450;49.374;8.584;2022-11-21T02:04:36;99610.72;;;5.45;100.00
25560;BME280;13450;49.374;8.584;2022-11-21T02:07:05;99614.38;;;5.44;100.00
25560;BME280;13450;49.374;8.584;2022-11-21T02:09:32;99612.69;;;5.43;100.00
25560;BME280;13450;49.374;8.584;2022-11-21T02:12:01;99613.53;;;5.44;100.00
25560;BME280;13450;49.374;8.584;2022-11-21T02:14:30;99608.41;;;5.42;100.00
25560;BME280;13450;49.374;8.584;2022-11-21T02:16:57;99601.59;;;5.40;100.00
25560;BME280;13450;49.374;8.584;2022-11-21T02:19:38;99617.53;;;5.40;100.00
25560;BME280;13450;49.374;8.584;2022-11-21T02:22:15;99607.75;;;5.40;100.00
25560;BME280;13450;49.374;8.584;2022-11-21T02:24:46;99607.25;;;5.36;100.00
25560;BME280;13450;49.374;8.584;2022-11-21T02:27:13;99610.75;;;5.37;100.00
25560;BME280;13450;49.374;8.584;2022-11-21T02:29:40;99603.63;;;5.38;100.00
25560;BME280;13450;49.374;8.584;2022-11-21T02:32:06;99605.44;;;5.37;100.00
25560;BME280;13450;49.374;8.584;2022-11-21T02:34:34;99602.78;;;5.37;100.00
25560;BME280;13450;49.374;8.584;2022-11-21T02:37:02;99596.63;;;5.36;100.00
25560;BME280;13450;49.374;8.584;2022-11-21T02:39:32;99605.59;;;5.35;100.00
25560;BME280;13450;49.374;8.584;2022-11-21T02:42:11;99603.94;;;5.34;100.00
25560;BME280;13450;49.374;8.584;2022-11-21T02:47:12;99612.91;;;5.33;100.00
25560;BME280;13450;49.374;8.584;2022-11-21T02:49:48;99607.78;;;5.32;100.00
25560;BME280;13450;49.374;8.584;2022-11-21T02:52:15;99606.78;;;5.33;100.00
25560;BME280;13450;49.374;8.584;2022-11-21T02:54:40;99605.59;;;5.35;100.00
25560;BME280;13450;49.374;8.584;2022-11-21T02:57:05;99606.91;;;5.40;100.00
25560;BME280;13450;49.374;8.584;2022-11-21T02:59:30;99601.28;;;5.43;100.00
25560;BME280;13450;49.374;8.584;2022-11-21T03:01:56;99603.75;;;5.44;100.00
25560;BME280;13450;49.374;8.584;2022-11-21T03:04:24;99596.44;;;5.46;100.00
25560;BME280;13450;49.374;8.584;2022-11-21T03:06:50;99593.63;;;5.48;100.00
25560;BME280;13450;49.374;8.584;2022-11-21T03:09:15;99587.31;;;5.49;100.00
25560;BME280;13450;49.374;8.584;2022-11-21T03:11:41;99598.09;;;5.47;100.00
25560;BME280;13450;49.374;8.584;2022-11-21T03:17:17;99590.78;;;5.49;100.00
25560;BME280;13450;49.374;8.584;2022-11-21T03:19:43;99582.34;;;5.46;100.00
25560;BME280;13450;49.374;8.584;2022-11-21T03:22:08;99587.84;;;5.44;100.00
25560;BME280;13450;49.374;8.584;2022-11-21T03:24:33;99586.53;;;5.40;100.00
25560;BME280;13450;49.374;8.584;2022-11-21T03:27:01;99587.69;;;5.38;100.00
25560;BME280;13450;49.374;8.584;2022-11-21T03:29:26;99598.66;;;5.34;100.00
25560;BME280;13450;49.374;8.584;2022-11-21T03:31:52;99590.69;;;5.34;100.00
25560;BME280;13450;49.374;8.584;2022-11-21T03:34:17;99594.97;;;5.35;100.00
25560;BME280;13450;49.374;8.584;2022-11-21T03:36:42;99596.84;;;5.35;100.00
25560;BME280;13450;49.374;8.584;2022-11-21T03:39:08;99597.63;;;5.35;100.00
25560;BME280;13450;49.374;8.584;2022-11-21T03:41:33;99591.84;;;5.40;100.00
25560;BME280;13450;49.374;8.584;2022-11-21T03:44:06;99597.94;;;5.41;100.00
25560;BME280;13450;49.374;8.584;2022-11-21T03:46:35;99594.31;;;5.42;100.00
25560;BME280;13450;49.374;8.584;2022-11-21T03:49:01;99585.03;;;5.38;100.00
25560;BME280;13450;49.374;8.584;2022-11-21T03:51:27;99589.19;;;5.32;100.00
25560;BME280;13450;49.374;8.584;2022-11-21T03:53:53;99583.75;;;5.25;100.00
25560;BME280;13450;49.374;8.584;2022-11-21T03:56:18;99597.50;;;5.20;100.00
25560;BME280;13450;49.374;8.584;2022-11-21T03:58:44;99597.72;;;5.19;100.00
25560;BME280;13450;49.374;8.584;2022-11-21T04:01:10;99606.00;;;5.16;100.00
25560;BME280;13450;49.374;8.584;2022-11-21T04:03:37;99593.75;;;5.15;100.00
25560;BME280;13450;49.374;8.584;2022-11-21T04:06:03;99604.53;;;5.13;100.00
25560;BME280;13450;49.374;8.584;2022-11-21T04:08:29;99599.38;;;5.12;100.00
25560;BME280;13450;49.374;8.584;2022-11-21T04:10:55;99605.53;;;5.12;100.00
25560;BME280;13450;49.374;8.584;2022-11-21T04:13:21;99601.34;;;5.18;100.00
25560;BME280;13450;49.374;8.584;2022-11-21T04:15:47;99603.03;;;5.19;100.00
25560;BME280;13450;49.374;8.584;2022-11-21T04:18:12;99600.00;;;5.22;100.00
25560;BME280;13450;49.374;8.584;2022-11-21T04:20:40;99598.66;;;5.26;100.00
25560;BME280;13450;49.374;8.584;2022-11-21T04:23:10;99589.91;;;5.26;100.00
25560;BME280;13450;49.374;8.584;2022-11-21T04:25:35;99582.75;;;5.26;100.00
25560;BME280;13450;49.374;8.584;2022-11-21T04:28:02;99580.78;;;5.28;100.00
25560;BME280;13450;49.374;8.584;2022-11-21T04:30:28;99587.72;;;5.29;100.00
25560;BME280;13450;49.374;8.584;2022-11-21T04:32:54;99593.66;;;5.31;100.00
25560;BME280;13450;49.374;8.584;2022-11-21T04:35:21;99588.69;;;5.36;100.00
25560;BME280;13450;49.374;8.584;2022-11-21T04:37:46;99591.00;;;5.40;100.00
25560;BME280;13450;49.374;8.584;2022-11-21T04:40:12;99589.00;;;5.42;100.00
25560;BME280;13450;49.374;8.584;2022-11-21T04:42:42;99586.16;;;5.43;100.00
25560;BME280;13450;49.374;8.584;2022-11-21T04:45:08;99591.31;;;5.45;100.00
25560;BME280;13450;49.374;8.584;2022-11-21T04:47:43;99587.00;;;5.44;100.00
25560;BME280;13450;49.374;8.584;2022-11-21T04:50:10;99582.34;;;5.46;100.00
25560;BME280;13450;49.374;8.584;2022-11-21T04:52:36;99584.19;;;5.45;100.00
25560;BME280;13450;49.374;8.584;2022-11-21T04:55:02;99585.00;;;5.46;100.00
25560;BME280;13450;49.374;8.584;2022-11-21T04:57:28;99579.69;;;5.46;100.00
25560;BME280;13450;49.374;8.584;2022-11-21T04:59:55;99573.72;;;5.44;100.00
25560;BME280;13450;49.374;8.584;2022-11-21T05:02:20;99579.22;;;5.42;100.00
25560;BME280;13450;49.374;8.584;2022-11-21T05:04:46;99575.53;;;5.43;100.00
25560;BME280;13450;49.374;8.584;2022-11-21T05:07:11;99572.25;;;5.41;100.00
25560;BME280;13450;49.374;8.584;2022-11-21T05:09:36;99570.44;;;5.42;100.00
25560;BME280;13450;49.374;8.584;2022-11-21T05:12:02;99578.41;;;5.42;100.00
25560;BME280;13450;49.374;8.584;2022-11-21T05:14:46;99580.22;;;5.41;100.00
25560;BME280;13450;49.374;8.584;2022-11-21T05:17:11;99580.03;;;5.43;100.00
25560;BME280;13450;49.374;8.584;2022-11-21T05:19:36;99571.91;;;5.44;100.00
25560;BME280;13450;49.374;8.584;2022-11-21T05:22:02;99573.56;;;5.45;100.00
25560;BME280;13450;49.374;8.584;2022-11-21T05:24:30;99579.69;;;5.46;100.00
25560;BME280;13450;49.374;8.584;2022-11-21T05:26:55;99577.03;;;5.46;100.00
25560;BME280;13450;49.374;8.584;2022-11-21T05:29:20;99575.22;;;5.46;100.00
25560;BME280;13450;49.374;8.584;2022-11-21T05:31:48;99580.53;;;5.46;100.00
25560;BME280;13450;49.374;8.584;2022-11-21T05:34:13;99577.53;;;5.49;100.00
25560;BME280;13450;49.374;8.584;2022-11-21T05:36:38;99579.34;;;5.49;100.00
25560;BME280;13450;49.374;8.584;2022-11-21T05:39:05;99577.34;;;5.51;100.00
25560;BME280;13450;49.374;8.584;2022-11-21T05:41:30;99579.00;;;5.52;100.00
25560;BME280;13450;49.374;8.584;2022-11-21T05:43:56;99589.63;;;5.52;100.00
25560;BME280;13450;49.374;8.584;2022-11-21T05:46:23;99584.31;;;5.52;100.00
25560;BME280;13450;49.374;8.584;2022-11-21T05:48:50;99589.78;;;5.50;100.00
25560;BME280;13450;49.374;8.584;2022-11-21T05:51:17;99591.59;;;5.50;100.00
25560;BME280;13450;49.374;8.584;2022-11-21T05:53:43;99588.63;;;5.53;100.00
25560;BME280;13450;49.374;8.584;2022-11-21T05:56:14;99593.28;;;5.51;100.00
25560;BME280;13450;49.374;8.584;2022-11-21T05:58:41;99593.28;;;5.51;100.00
25560;BME280;13450;49.374;8.584;2022-11-21T06:01:08;99590.44;;;5.53;100.00
25560;BME280;13450;49.374;8.584;2022-11-21T06:03:38;99591.28;;;5.53;100.00
25560;BME280;13450;49.374;8.584;2022-11-21T06:06:12;99587.59;;;5.54;100.00
25560;BME280;13450;49.374;8.584;2022-11-21T06:08:42;99587.59;;;5.54;100.00
25560;BME280;13450;49.374;8.584;2022-11-21T06:11:10;99586.63;;;5.55;100.00
25560;BME280;13450;49.374;8.584;2022-11-21T06:13:36;99579.31;;;5.57;100.00
25560;BME280;13450;49.374;8.584;2022-11-21T06:16:07;99587.09;;;5.59;100.00
25560;BME280;13450;49.374;8.584;2022-11-21T06:18:35;99581.63;;;5.60;100.00
25560;BME280;13450;49.374;8.584;2022-11-21T06:21:06;99586.94;;;5.60;100.00
25560;BME280;13450;49.374;8.584;2022-11-21T06:23:35;99586.94;;;5.60;100.00
25560;BME280;13450;49.374;8.584;2022-11-21T06:26:03;99587.91;;;5.59;100.00
25560;BME280;13450;49.374;8.584;2022-11-21T06:28:31;99593.91;;;5.61;100.00
25560;BME280;13450;49.374;8.584;2022-11-21T06:31:04;99579.94;;;5.59;100.00
25560;BME280;13450;49.374;8.584;2022-11-21T06:33:30;99590.56;;;5.59;100.00
25560;BME280;13450;49.374;8.584;2022-11-21T06:35:55;99589.94;;;5.57;100.00
25560;BME280;13450;49.374;8.584;2022-11-21T06:38:20;99584.63;;;5.57;100.00
25560;BME280;13450;49.374;8.584;2022-11-21T06:40:46;99594.59;;;5.55;100.00
25560;BME280;13450;49.374;8.584;2022-11-21T06:43:11;99594.59;;;5.55;100.00
25560;BME280;13450;49.374;8.584;2022-11-21T06:45:36;99603.53;;;5.54;100.00
25560;BME280;13450;49.374;8.584;2022-11-21T06:48:02;99600.06;;;5.54;100.00
25560;BME280;13450;49.374;8.584;2022-11-21T06:50:30;99600.88;;;5.54;100.00
25560;BME280;13450;49.374;8.584;2022-11-21T06:52:57;99609.22;;;5.51;100.00
25560;BME280;13450;49.374;8.584;2022-11-21T06:55:22;99598.75;;;5.49;100.00
25560;BME280;13450;49.374;8.584;2022-11-21T06:57:49;99591.59;;;5.50;100.00
25560;BME280;13450;49.374;8.584;2022-11-21T07:00:15;99596.56;;;5.53;100.00
25560;BME280;13450;49.374;8.584;2022-11-21T07:02:41;99591.94;;;5.55;100.00
25560;BME280;13450;49.374;8.584;2022-11-21T07:05:06;99598.22;;;5.54;100.00
25560;BME280;13450;49.374;8.584;2022-11-21T07:07:32;99598.22;;;5.54;100.00
25560;BME280;13450;49.374;8.584;2022-11-21T07:09:57;99599.91;;;5.55;100.00
25560;BME280;13450;49.374;8.584;2022-11-21T07:12:22;99591.94;;;5.55;100.00
25560;BME280;13450;49.374;8.584;2022-11-21T07:15:07;99602.19;;;5.58;100.00
25560;BME280;13450;49.374;8.584;2022-11-21T07:17:32;99604.84;;;5.58;100.00
25560;BME280;13450;49.374;8.584;2022-11-21T07:19:57;99604.84;;;5.58;100.00
25560;BME280;13450;49.374;8.584;2022-11-21T07:22:25;99607.34;;;5.60;100.00
25560;BME280;13450;49.374;8.584;2022-11-21T07:24:53;99601.84;;;5.61;100.00
25560;BME280;13450;49.374;8.584;2022-11-21T07:27:20;99603.16;;;5.66;100.00
25560;BME280;13450;49.374;8.584;2022-11-21T07:29:46;99602.16;;;5.67;100.00
25560;BME280;13450;49.374;8.584;2022-11-21T07:32:13;99599.34;;;5.68;100.00
25560;BME280;13450;49.374;8.584;2022-11-21T07:34:41;99607.13;;;5.70;100.00
25560;BME280;13450;49.374;8.584;2022-11-21T07:37:06;99607.94;;;5.70;100.00
25560;BME280;13450;49.374;8.584;2022-11-21T07:39:34;99607.13;;;5.70;100.00
25560;BME280;13450;49.374;8.584;2022-11-21T07:41:59;99607.13;;;5.70;100.00
25560;BME280;13450;49.374;8.584;2022-11-21T07:44:24;99612.06;;;5.73;100.00
25560;BME280;13450;49.374;8.584;2022-11-21T07:46:53;99609.75;;;5.78;100.00
25560;BME280;13450;49.374;8.584;2022-11-21T07:49:18;99619.53;;;5.78;100.00
25560;BME280;13450;49.374;8.584;2022-11-21T07:51:46;99628.97;;;5.80;100.00
25560;BME280;13450;49.374;8.584;2022-11-21T07:54:13;99624.34;;;5.82;100.00
25560;BME280;13450;49.374;8.584;2022-11-21T07:56:41;99623.63;;;5.88;100.00
25560;BME280;13450;49.374;8.584;2022-11-21T07:59:06;99621.94;;;5.96;100.00
25560;BME280;13450;49.374;8.584;2022-11-21T08:01:31;99608.28;;;5.99;100.00
25560;BME280;13450;49.374;8.584;2022-11-21T08:03:57;99619.25;;;6.04;100.00
25560;BME280;13450;49.374;8.584;2022-11-21T08:06:22;99615.91;;;6.02;100.00
25560;BME280;13450;49.374;8.584;2022-11-21T08:08:54;99615.91;;;6.10;100.00
25560;BME280;13450;49.374;8.584;2022-11-21T08:11:22;99620.66;;;6.15;100.00
25560;BME280;13450;49.374;8.584;2022-11-21T08:13:47;99617.03;;;6.16;100.00
25560;BME280;13450;49.374;8.584;2022-11-21T08:16:15;99617.38;;;6.13;100.00
25560;BME280;13450;49.374;8.584;2022-11-21T08:18:42;99623.19;;;6.08;100.00
25560;BME280;13450;49.374;8.584;2022-11-21T08:21:08;99618.91;;;6.07;100.00
25560;BME280;13450;49.374;8.584;2022-11-21T08:23:33;99613.94;;;6.04;100.00
25560;BME280;13450;49.374;8.584;2022-11-21T08:25:58;99614.94;;;5.95;100.00
25560;BME280;13450;49.374;8.584;2022-11-21T08:28:24;99609.63;;;5.95;100.00
25560;BME280;13450;49.374;8.584;2022-11-21T08:30:49;99603.38;;;5.87;100.00
25560;BME280;13450;49.374;8.584;2022-11-21T08:33:14;99611.19;;;5.89;100.00
25560;BME280;13450;49.374;8.584;2022-11-21T08:35:44;99608.53;;;5.89;100.00
25560;BME280;13450;49.374;8.584;2022-11-21T08:38:10;99608.00;;;5.94;100.00
25560;BME280;13450;49.374;8.584;2022-11-21T08:40:35;99608.81;;;5.94;100.00
25560;BME280;13450;49.374;8.584;2022-11-21T08:43:05;99609.63;;;5.95;100.00
25560;BME280;13450;49.374;8.584;2022-11-21T08:45:32;99601.34;;;5.98;100.00
25560;BME280;13450;49.374;8.584;2022-11-21T08:47:58;99604.31;;;6.03;100.00
25560;BME280;13450;49.374;8.584;2022-11-21T08:50:23;99594.34;;;6.05;100.00
25560;BME280;13450;49.374;8.584;2022-11-21T08:52:49;99597.94;;;6.12;100.00
25560;BME280;13450;49.374;8.584;2022-11-21T08:55:15;99596.19;;;6.28;100.00
25560;BME280;13450;49.374;8.584;2022-11-21T08:57:41;99587.72;;;6.48;100.00
25560;BME280;13450;49.374;8.584;2022-11-21T09:00:10;99603.47;;;6.73;100.00
25560;BME280;13450;49.374;8.584;2022-11-21T09:02:38;99605.25;;;6.96;100.00
25560;BME280;13450;49.374;8.584;2022-11-21T09:05:04;99603.41;;;7.11;100.00
25560;BME280;13450;49.374;8.584;2022-11-21T09:07:29;99592.50;;;7.21;100.00
25560;BME280;13450;49.374;8.584;2022-11-21T09:09:55;99597.56;;;7.31;100.00
25560;BME280;13450;49.374;8.584;2022-11-21T09:12:20;99599.38;;;7.45;100.00
25560;BME280;13450;49.374;8.584;2022-11-21T09:14:45;99601.28;;;7.52;100.00
25560;BME280;13450;49.374;8.584;2022-11-21T09:17:31;99591.66;;;7.51;100.00
25560;BME280;13450;49.374;8.584;2022-11-21T09:20:14;99596.72;;;7.61;100.00
25560;BME280;13450;49.374;8.584;2022-11-21T09:22:40;99591.16;;;7.62;100.00
25560;BME280;13450;49.374;8.584;2022-11-21T09:25:07;99593.84;;;7.62;100.00
25560;BME280;13450;49.374;8.584;2022-11-21T09:27:33;99591.81;;;7.64;100.00
25560;BME280;13450;49.374;8.584;2022-11-21T09:29:58;99594.03;;;7.61;100.00
25560;BME280;13450;49.374;8.584;2022-11-21T09:32:23;99593.13;;;7.53;100.00
25560;BME280;13450;49.374;8.584;2022-11-21T09:34:49;99587.09;;;7.44;100.00
25560;BME280;13450;49.374;8.584;2022-11-21T09:37:14;99574.75;;;7.43;100.00
25560;BME280;13450;49.374;8.584;2022-11-21T09:39:39;99581.56;;;7.46;100.00
25560;BME280;13450;49.374;8.584;2022-11-21T09:42:31;99573.56;;;7.46;100.00
25560;BME280;13450;49.374;8.584;2022-11-21T09:46:00;99569.59;;;7.57;100.00
25560;BME280;13450;49.374;8.584;2022-11-21T09:48:16;99562.28;;;7.59;100.00
25560;BME280;13450;49.374;8.584;2022-11-21T09:50:48;99559.50;;;7.67;100.00
25560;BME280;13450;49.374;8.584;2022-11-21T09:53:31;99561.59;;;7.72;100.00
25560;BME280;13450;49.374;8.584;2022-11-21T09:56:00;99565.06;;;7.88;100.00
25560;BME280;13450;49.374;8.584;2022-11-21T09:58:31;99562.72;;;8.00;100.00
25560;BME280;13450;49.374;8.584;2022-11-21T10:01:01;99552.06;;;8.00;100.00
25560;BME280;13450;49.374;8.584;2022-11-21T10:03:30;99552.94;;;8.07;100.00
25560;BME280;13450;49.374;8.584;2022-11-21T10:06:03;99544.28;;;8.48;100.00
25560;BME280;13450;49.374;8.584;2022-11-21T10:08:40;99533.66;;;9.19;100.00
25560;BME280;13450;49.374;8.584;2022-11-21T10:11:13;99520.34;;;10.83;100.00
25560;BME280;13450;49.374;8.584;2022-11-21T10:19:20;99519.34;;;15.21;100.00
25560;BME280;13450;49.374;8.584;2022-11-21T10:27:09;99527.09;;;17.13;71.68
25560;BME280;13450;49.374;8.584;2022-11-21T10:29:47;99531.03;;;16.66;72.79
25560;BME280;13450;49.374;8.584;2022-11-21T10:32:23;99522.31;;;17.43;72.34
25560;BME280;13450;49.374;8.584;2022-11-21T10:34:54;99526.97;;;17.25;66.05
25560;BME280;13450;49.374;8.584;2022-11-21T10:37:37;99523.59;;;17.62;70.59
25560;BME280;13450;49.374;8.584;2022-11-21T10:40:25;99521.00;;;16.27;72.08
25560;BME280;13450;49.374;8.584;2022-11-21T10:42:57;99518.22;;;14.93;82.36
25560;BME280;13450;49.374;8.584;2022-11-21T10:45:23;99512.84;;;14.33;87.53
25560;BME280;13450;49.374;8.584;2022-11-21T10:47:50;99505.41;;;15.53;84.98
25560;BME280;13450;49.374;8.584;2022-11-21T10:53:18;99499.91;;;18.83;67.76
25560;BME280;13450;49.374;8.584;2022-11-21T10:56:16;99475.59;;;18.46;63.17
25560;BME280;13450;49.374;8.584;2022-11-21T11:01:26;99480.63;;;16.94;64.56
25560;BME280;13450;49.374;8.584;2022-11-21T11:04:05;99469.56;;;15.99;73.62
25560;BME280;13450;49.374;8.584;2022-11-21T11:06:30;99463.06;;;15.83;78.93
25560;BME280;13450;49.374;8.584;2022-11-21T11:08:56;99456.16;;;14.88;84.08
25560;BME280;13450;49.374;8.584;2022-11-21T11:11:22;99465.41;;;13.96;90.86
25560;BME280;13450;49.374;8.584;2022-11-21T11:14:00;99452.91;;;14.38;92.89
25560;BME280;13450;49.374;8.584;2022-11-21T11:16:27;99445.63;;;16.42;85.40
25560;BME280;13450;49.374;8.584;2022-11-21T11:19:04;99436.19;;;17.89;64.03
25560;BME280;13450;49.374;8.584;2022-11-21T11:29:24;99415.41;;;17.62;65.52
25560;BME280;13450;49.374;8.584;2022-11-21T11:32:04;99416.66;;;16.77;64.26
25560;BME280;13450;49.374;8.584;2022-11-21T11:34:48;99406.88;;;15.46;72.22
25560;BME280;13450;49.374;8.584;2022-11-21T12:05:33;99358.31;;;19.77;57.27
25560;BME280;13450;49.374;8.584;2022-11-21T12:08:18;99341.53;;;18.00;61.06
25560;BME280;13450;49.374;8.584;2022-11-21T12:56:39;99271.44;;;23.32;35.93
25560;BME280;13450;49.374;8.584;2022-11-21T12:59:11;99263.88;;;23.76;36.85
25560;BME280;13450;49.374;8.584;2022-11-21T13:01:48;99264.66;;;24.84;35.32
25560;BME280;13450;49.374;8.584;2022-11-21T13:06:51;99253.34;;;21.23;39.44
25560;BME280;13450;49.374;8.584;2022-11-21T13:09:19;99245.84;;;18.11;47.59
25560;BME280;13450;49.374;8.584;2022-11-21T13:12:02;99237.28;;;16.23;57.00
25560;BME280;13450;49.374;8.584;2022-11-21T14:02:13;99140.34;;;12.33;100.00
25560;BME280;13450;49.374;8.584;2022-11-21T14:07:35;99131.22;;;11.35;100.00
25560;BME280;13450;49.374;8.584;2022-11-21T14:10:05;99123.53;;;11.01;100.00
25560;BME280;13450;49.374;8.584;2022-11-21T14:12:46;99119.75;;;10.83;100.00
25560;BME280;13450;49.374;8.584;2022-11-21T14:18:21;99116.72;;;10.48;100.00
25560;BME280;13450;49.374;8.584;2022-11-21T14:20:54;99119.03;;;10.37;100.00
25560;BME280;13450;49.374;8.584;2022-11-21T14:23:26;99111.09;;;10.24;100.00
25560;BME280;13450;49.374;8.584;2022-11-21T14:25:55;99102.97;;;10.12;100.00
25560;BME280;13450;49.374;8.584;2022-11-21T14:28:28;99111.59;;;10.07;100.00
25560;BME280;13450;49.374;8.584;2022-11-21T14:31:07;99107.16;;;9.94;100.00
25560;BME280;13450;49.374;8.584;2022-11-21T14:33:37;99105.94;;;9.90;100.00
25560;BME280;13450;49.374;8.584;2022-11-21T14:38:54;99086.69;;;9.74;100.00
25560;BME280;13450;49.374;8.584;2022-11-21T14:49:17;99065.09;;;9.30;100.00
25560;BME280;13450;49.374;8.584;2022-11-21T14:51:47;99053.66;;;9.16;100.00
25560;BME280;13450;49.374;8.584;2022-11-21T14:54:28;99041.34;;;9.08;100.00
25560;BME280;13450;49.374;8.584;2022-11-21T14:56:58;99036.66;;;8.97;100.00
25560;BME280;13450;49.374;8.584;2022-11-21T14:59:31;99027.03;;;8.89;100.00
25560;BME280;13450;49.374;8.584;2022-11-21T15:02:10;99024.59;;;8.81;100.00
25560;BME280;13450;49.374;8.584;2022-11-21T15:04:40;99006.13;;;8.72;100.00
25560;BME280;13450;49.374;8.584;2022-11-21T15:07:16;98996.72;;;8.63;100.00
25560;BME280;13450;49.374;8.584;2022-11-21T15:09:43;98987.28;;;8.54;100.00
25560;BME280;13450;49.374;8.584;2022-11-21T15:12:10;98986.84;;;8.43;100.00
25560;BME280;13450;49.374;8.584;2022-11-21T15:14:41;98983.56;;;8.34;100.00
25560;BME280;13450;49.374;8.584;2022-11-21T15:17:16;98973.53;;;8.23;100.00
25560;BME280;13450;49.374;8.584;2022-11-21T15:20:01;98951.41;;;8.09;100.00
25560;BME280;13450;49.374;8.584;2022-11-21T15:22:32;98951.00;;;7.98;100.00
25560;BME280;13450;49.374;8.584;2022-11-21T15:25:18;98950.19;;;7.91;100.00
25560;BME280;13450;49.374;8.584;2022-11-21T15:28:22;98939.13;;;7.81;100.00
25560;BME280;13450;49.374;8.584;2022-11-21T15:33:19;98937.66;;;7.58;100.00
25560;BME280;13450;49.374;8.584;2022-11-21T15:46:00;98887.41;;;7.21;100.00
25560;BME280;13450;49.374;8.584;2022-11-21T15:48:27;98878.56;;;7.14;100.00
25560;BME280;13450;49.374;8.584;2022-11-21T15:50:52;98867.72;;;7.09;100.00
25560;BME280;13450;49.374;8.584;2022-11-21T15:53:18;98865.88;;;7.02;100.00
25560;BME280;13450;49.374;8.584;2022-11-21T15:55:44;98853.78;;;6.93;100.00
25560;BME280;13450;49.374;8.584;2022-11-21T15:58:09;98849.03;;;6.88;100.00
25560;BME280;13450;49.374;8.584;2022-11-21T16:00:36;98842.88;;;6.81;100.00
25560;BME280;13450;49.374;8.584;2022-11-21T16:03:02;98838.19;;;6.76;100.00
25560;BME280;13450;49.374;8.584;2022-11-21T16:36:30;98747.41;;;6.17;100.00
25560;BME280;13450;49.374;8.584;2022-11-21T16:41:28;98754.72;;;6.15;100.00
25560;BME280;13450;49.374;8.584;2022-11-21T16:46:30;98778.44;;;6.17;100.00
25560;BME280;13450;49.374;8.584;2022-11-21T16:49:00;98787.81;;;6.12;100.00
25560;BME280;13450;49.374;8.584;2022-11-21T16:51:26;98783.91;;;6.08;100.00